Time;durP1;ratioP1;P1;durP2;ratioP2;P2;SDS_P1;SDS_P2;PMS_P1;PMS_P2;Temp;Humidity;BMP_temperature;BMP_pressure;BME280_temperature;BME280_humidity;BME280_pressure;Samples;Min_cycle;Max_cycle;Signal;HPM_P1;HPM_P2
2022/11/14 00:00:40;;;;;;;41.97;19.42;;;;;;;4.98;74.84;95021.72;5065724;28;20037;-81
2022/11/14 00:03:07;;;;;;;38.28;19.45;;;;;;;4.99;74.67;95020.69;5065529;28;20017;-80
2022/11/14 00:05:38;;;;;;;42.38;19.95;;;;;;;5.00;74.94;95006.41;5065579;28;20021;-80
2022/11/14 00:08:03;;;;;;;47.47;21.23;;;;;;;5.02;75.11;95006.97;5065529;28;20045;-81
2022/11/14 00:10:29;;;;;;;45.00;20.77;;;;;;;5.01;75.00;95012.50;5065483;28;20048;-82
2022/11/14 00:12:54;;;;;;;44.05;22.42;;;;;;;5.00;75.28;95003.78;5065377;28;20345;-81
2022/11/14 00:15:20;;;;;;;48.55;20.75;;;;;;;4.99;75.24;95010.13;5065712;28;20028;-82
2022/11/14 00:17:45;;;;;;;43.92;20.48;;;;;;;4.98;75.12;95013.78;5065521;28;20086;-82
2022/11/14 00:20:12;;;;;;;40.53;20.13;;;;;;;4.95;74.93;95009.03;5065415;28;20025;-82
2022/11/14 00:22:37;;;;;;;38.47;18.73;;;;;;;4.92;75.10;95014.00;5065230;28;20017;-82
2022/11/14 00:25:03;;;;;;;43.47;20.30;;;;;;;4.91;74.83;95007.91;5065276;28;20052;-83
2022/11/14 00:27:29;;;;;;;46.08;20.83;;;;;;;4.92;74.50;95006.06;5064680;28;20043;-82
2022/11/14 00:29:54;;;;;;;40.15;19.95;;;;;;;4.90;74.78;95008.94;5065358;28;20021;-83
2022/11/14 00:32:21;;;;;;;43.75;21.73;;;;;;;4.88;74.75;95008.41;5065289;28;20036;-82
2022/11/14 00:34:47;;;;;;;45.92;21.35;;;;;;;4.86;74.95;95009.72;5065119;28;20103;-82
2022/11/14 00:37:13;;;;;;;45.95;22.92;;;;;;;4.84;75.34;95007.31;5064871;28;20084;-81
2022/11/14 00:39:38;;;;;;;50.83;24.33;;;;;;;4.83;75.20;95005.72;5064916;28;20211;-81
2022/11/14 00:42:04;;;;;;;50.50;24.98;;;;;;;4.82;75.46;95004.94;5065040;28;20013;-81
2022/11/14 00:44:29;;;;;;;52.67;23.50;;;;;;;4.84;74.98;95007.31;5064954;28;20019;-84
2022/11/14 00:46:55;;;;;;;47.78;24.15;;;;;;;4.82;75.14;95007.56;5064949;28;20223;-83
2022/11/14 00:49:20;;;;;;;51.35;23.50;;;;;;;4.82;75.81;95010.22;5064830;28;20066;-82
2022/11/14 00:51:46;;;;;;;42.75;21.02;;;;;;;4.82;76.09;95006.75;5064566;28;20040;-84
2022/11/14 00:54:11;;;;;;;50.83;24.10;;;;;;;4.78;76.65;95008.28;5064690;28;20307;-83
2022/11/14 00:56:37;;;;;;;52.55;24.58;;;;;;;4.75;76.71;95006.16;5064595;28;20029;-83
2022/11/14 00:59:02;;;;;;;57.25;25.98;;;;;;;4.71;76.80;94997.94;5064504;28;20041;-83
2022/11/14 01:01:28;;;;;;;45.80;23.48;;;;;;;4.72;76.20;94998.72;5064456;28;20025;-84
2022/11/14 01:03:53;;;;;;;44.38;21.08;;;;;;;4.70;75.34;95000.81;5064572;28;20033;-83
2022/11/14 01:06:19;;;;;;;49.00;21.70;;;;;;;4.65;75.23;94992.84;5064633;28;20032;-83
2022/11/14 01:08:45;;;;;;;45.80;23.02;;;;;;;4.66;75.37;94997.06;5064507;28;20180;-84
2022/11/14 01:11:15;;;;;;;41.67;22.05;;;;;;;4.65;75.44;94992.84;5064311;28;20096;-84
2022/11/14 01:13:40;;;;;;;48.40;24.33;;;;;;;4.63;75.49;94991.25;5063996;28;20259;-82
2022/11/14 01:16:06;;;;;;;42.67;21.25;;;;;;;4.60;75.12;94997.03;5064163;28;20040;-82
2022/11/14 01:18:32;;;;;;;43.50;21.35;;;;;;;4.58;75.11;95003.59;5064281;28;20044;-83
2022/11/14 01:20:59;;;;;;;43.63;22.30;;;;;;;4.56;75.09;94998.56;5064058;28;20028;-82
2022/11/14 01:23:24;;;;;;;44.88;20.45;;;;;;;4.56;74.90;95001.22;5064189;28;20032;-83
2022/11/14 01:25:50;;;;;;;42.17;19.02;;;;;;;4.54;75.04;94992.75;5064092;28;20154;-83
2022/11/14 01:28:17;;;;;;;44.67;23.38;;;;;;;4.50;75.12;94989.00;5064176;28;20043;-83
2022/11/14 01:30:43;;;;;;;55.00;25.67;;;;;;;4.50;76.30;94986.34;5064138;28;20135;-83
2022/11/14 01:33:09;;;;;;;58.72;28.48;;;;;;;4.51;77.29;94981.88;5063968;28;20254;-83
2022/11/14 01:35:36;;;;;;;50.30;23.13;;;;;;;4.50;77.46;94982.91;5063877;28;20208;-82
2022/11/14 01:38:02;;;;;;;47.33;23.52;;;;;;;4.47;76.95;94980.78;5063674;28;20092;-82
2022/11/14 01:40:28;;;;;;;51.00;26.23;;;;;;;4.44;76.89;94979.44;5062745;28;20025;-83
2022/11/14 01:43:18;;;;;;;49.20;23.48;;;;;;;4.47;77.11;94973.63;5063884;28;20016;-82
2022/11/14 01:46:00;;;;;;;46.63;20.90;;;;;;;4.46;77.52;94974.69;5063499;28;20067;-82
2022/11/14 01:48:28;;;;;;;;;;;;;;;4.46;77.59;94974.69;5064185;28;20025;-83
2022/11/14 01:51:25;;;;;;;48.42;20.50;;;;;;;4.37;77.86;94958.47;5063455;28;19908;-83
2022/11/14 01:53:54;;;;;;;45.05;19.83;;;;;;;4.34;78.17;94969.53;5053546;28;20096;-84
2022/11/14 01:56:37;;;;;;;39.45;19.65;;;;;;;4.34;77.93;94951.06;5063578;28;20315;-84
2022/11/14 01:59:16;;;;;;;47.83;21.02;;;;;;;4.33;77.76;94965.28;5063243;28;20037;-83
2022/11/14 02:01:46;;;;;;;42.80;20.77;;;;;;;4.35;77.65;94957.13;5063558;28;20205;-84
2022/11/14 02:04:16;;;;;;;48.83;21.90;;;;;;;4.35;77.59;94957.13;5063436;28;20020;-84
2022/11/14 02:06:43;;;;;;;51.33;23.88;;;;;;;4.36;77.87;94948.97;5063225;28;20230;-81
2022/11/14 02:09:08;;;;;;;47.20;23.27;;;;;;;4.37;78.16;94950.56;5063218;28;20332;-80
2022/11/14 02:11:38;;;;;;;49.65;22.95;;;;;;;4.36;78.20;94948.97;5061938;28;20029;-81
2022/11/14 02:14:05;;;;;;;46.58;23.02;;;;;;;4.37;78.18;94944.50;5063287;28;20025;-82
2022/11/14 02:16:31;;;;;;;49.10;23.17;;;;;;;4.36;78.17;94943.69;5063085;28;20059;-82
2022/11/14 02:18:56;;;;;;;54.92;24.38;;;;;;;4.35;77.74;94941.28;5063284;28;20033;-82
2022/11/14 02:21:22;;;;;;;51.95;25.00;;;;;;;4.32;78.51;94939.97;5063166;28;20020;-82
2022/11/14 02:23:47;;;;;;;49.42;25.23;;;;;;;4.34;78.55;94945.78;5063032;28;20314;-82
2022/11/14 02:26:16;;;;;;;52.70;24.95;;;;;;;4.30;78.73;94944.69;5062923;28;20025;-81
2022/11/14 02:28:41;;;;;;;55.83;25.80;;;;;;;4.32;78.97;94947.88;5063146;28;20028;-82
2022/11/14 02:31:07;;;;;;;54.55;24.58;;;;;;;4.31;78.49;94940.19;5062776;28;20477;-82
2022/11/14 02:33:32;;;;;;;42.80;22.92;;;;;;;4.28;78.05;94938.84;5062994;28;20020;-83
2022/11/14 02:35:58;;;;;;;48.92;20.67;;;;;;;4.18;77.85;94942.16;5062851;28;20192;-83
2022/11/14 02:38:23;;;;;;;40.15;19.77;;;;;;;4.18;77.23;94942.16;5062909;28;20101;-82
2022/11/14 02:40:48;;;;;;;41.25;20.58;;;;;;;4.17;76.81;94940.59;5062754;28;20099;-83
2022/11/14 02:43:14;;;;;;;40.72;19.85;;;;;;;4.14;76.70;94946.34;5062864;28;20031;-82
2022/11/14 02:45:39;;;;;;;36.85;18.27;;;;;;;4.16;76.55;94943.47;5062763;28;20020;-82
2022/11/14 02:48:05;;;;;;;36.30;18.38;;;;;;;4.13;76.56;94943.94;5062633;28;20017;-82
2022/11/14 02:50:31;;;;;;;28.95;14.48;;;;;;;4.12;76.19;94937.09;5062138;28;20020;-82
2022/11/14 02:52:56;;;;;;;24.65;12.30;;;;;;;4.08;75.89;94935.97;5062587;28;20028;-82
2022/11/14 02:55:22;;;;;;;19.95;10.23;;;;;;;4.06;75.10;94938.06;5062842;28;20366;-82
2022/11/14 02:57:47;;;;;;;26.58;13.25;;;;;;;4.01;75.10;94934.31;5062566;28;20104;-82
2022/11/14 03:00:13;;;;;;;21.00;11.88;;;;;;;3.99;75.39;94939.03;5062718;28;20040;-82
2022/11/14 03:02:38;;;;;;;23.35;12.07;;;;;;;3.96;75.42;94933.44;5062425;28;20021;-82
2022/11/14 03:05:04;;;;;;;22.40;11.73;;;;;;;3.94;75.29;94925.00;5062632;28;20029;-82
2022/11/14 03:07:31;;;;;;;31.20;14.48;;;;;;;3.94;75.30;94932.91;5062591;28;20085;-82
2022/11/14 03:09:57;;;;;;;29.65;15.30;;;;;;;3.88;75.69;94933.88;5062451;28;20375;-82
2022/11/14 03:12:22;;;;;;;38.33;19.48;;;;;;;3.85;76.22;94937.81;5062592;28;20092;-82
2022/11/14 03:14:47;;;;;;;46.53;20.67;;;;;;;3.84;77.13;94932.78;5061290;28;20088;-82
2022/11/14 03:17:13;;;;;;;47.50;21.48;;;;;;;3.82;77.31;94933.78;5061205;28;20055;-82
2022/11/14 03:19:38;;;;;;;35.00;17.75;;;;;;;3.79;77.20;94929.03;5062397;28;20021;-82
2022/11/14 03:22:04;;;;;;;39.90;20.35;;;;;;;3.81;77.56;94931.44;5062433;28;20275;-82
2022/11/14 03:24:29;;;;;;;46.15;21.83;;;;;;;3.82;77.38;94928.53;5062420;28;20021;-82
2022/11/14 03:26:55;;;;;;;40.55;20.50;;;;;;;3.81;77.36;94915.59;5062326;28;20250;-82
2022/11/14 03:29:20;;;;;;;45.88;20.00;;;;;;;3.77;77.33;94923.19;5062252;28;20203;-82
2022/11/14 03:31:46;;;;;;;34.13;17.45;;;;;;;3.78;77.34;94921.34;5062398;28;20025;-82
2022/11/14 03:34:11;;;;;;;36.67;17.40;;;;;;;3.78;76.86;94929.25;5061152;28;20032;-83
2022/11/14 03:36:37;;;;;;;42.60;19.10;;;;;;;3.72;76.75;94923.13;5062118;28;20092;-83
2022/11/14 03:39:03;;;;;;;32.42;15.90;;;;;;;3.71;76.48;94912.84;5062275;28;20044;-83
2022/11/14 03:41:29;;;;;;;31.52;15.60;;;;;;;3.70;76.43;94913.84;5062040;28;20017;-83
2022/11/14 03:43:54;;;;;;;31.35;15.23;;;;;;;3.66;76.35;94918.81;5062341;28;20027;-82
2022/11/14 03:46:20;;;;;;;28.35;13.32;;;;;;;3.63;76.19;94913.25;5062424;28;20315;-83
2022/11/14 03:48:45;;;;;;;25.70;13.52;;;;;;;3.63;75.79;94913.25;5062056;28;20040;-84
2022/11/14 03:51:11;;;;;;;22.15;11.13;;;;;;;3.64;75.46;94920.09;5061917;28;20056;-83
2022/11/14 03:53:36;;;;;;;20.23;11.30;;;;;;;3.61;74.93;94916.13;5061981;28;20310;-83
2022/11/14 03:56:02;;;;;;;23.42;11.60;;;;;;;3.58;75.19;94919.22;5062145;28;20104;-83
2022/11/14 03:58:27;;;;;;;18.70;9.48;;;;;;;3.57;74.78;94920.28;5061970;28;20059;-83
2022/11/14 04:00:54;;;;;;;22.30;11.30;;;;;;;3.53;74.73;94921.81;5062134;28;20025;-82
2022/11/14 04:03:20;;;;;;;30.58;12.05;;;;;;;3.49;75.08;94915.44;5064275;28;20147;-83
2022/11/14 04:05:46;;;;;;;32.05;12.52;;;;;;;3.46;75.21;94921.16;5065744;28;20028;-82
2022/11/14 04:08:12;;;;;;;28.20;13.23;;;;;;;3.46;75.33;94918.53;5065697;28;20020;-82
2022/11/14 04:10:37;;;;;;;32.70;14.48;;;;;;;3.43;75.62;94919.81;5065582;28;20070;-82
2022/11/14 04:13:04;;;;;;;25.10;12.65;;;;;;;3.46;75.64;94915.91;5065533;28;20272;-84
2022/11/14 04:15:29;;;;;;;25.10;12.45;;;;;;;3.45;75.32;94923.00;5065327;28;20025;-83
2022/11/14 04:17:54;;;;;;;25.77;11.85;;;;;;;3.45;75.32;94920.38;5064297;28;20357;-85
2022/11/14 04:20:20;;;;;;;21.08;11.18;;;;;;;3.42;75.14;94916.41;5065558;28;20082;-83
2022/11/14 04:22:45;;;;;;;27.85;13.45;;;;;;;3.41;75.41;94911.38;5064173;28;20013;-83
2022/11/14 04:25:11;;;;;;;40.63;19.33;;;;;;;3.41;75.50;94912.16;5065374;28;20330;-83
2022/11/14 04:27:37;;;;;;;32.13;16.50;;;;;;;3.40;76.12;94915.84;5064999;28;20176;-83
2022/11/14 04:30:04;;;;;;;40.20;20.52;;;;;;;3.41;75.74;94906.09;5065175;28;20025;-83
2022/11/14 04:32:29;;;;;;;43.30;19.75;;;;;;;3.41;75.76;94919.28;5065117;28;20110;-82
2022/11/14 04:34:55;;;;;;;37.78;18.08;;;;;;;3.39;75.84;94908.97;5065106;28;20421;-83
2022/11/14 04:37:20;;;;;;;40.42;18.30;;;;;;;3.38;75.72;94911.84;5065276;28;20028;-81
2022/11/14 04:39:45;;;;;;;34.95;17.73;;;;;;;3.37;75.41;94910.25;5064798;28;20208;-81
2022/11/14 04:42:11;;;;;;;39.75;17.05;;;;;;;3.34;75.44;94901.00;5064907;28;20039;-80
2022/11/14 04:44:36;;;;;;;37.58;18.27;;;;;;;3.34;74.94;94908.91;5064925;28;20318;-80
2022/11/14 04:47:02;;;;;;;43.70;20.70;;;;;;;3.29;75.72;94908.03;5064889;28;20024;-81
2022/11/14 04:49:27;;;;;;;57.05;26.42;;;;;;;3.23;76.56;94907.16;5064539;28;20031;-82
2022/11/14 04:51:53;;;;;;;43.10;21.30;;;;;;;3.20;77.39;94911.06;5064773;28;20322;-83
2022/11/14 04:54:18;;;;;;;43.10;20.50;;;;;;;3.17;77.80;94905.47;5064756;28;20021;-82
2022/11/14 04:56:44;;;;;;;42.22;21.92;;;;;;;3.15;77.33;94902.28;5064851;28;20067;-82
2022/11/14 04:59:09;;;;;;;40.33;19.27;;;;;;;3.17;77.25;94908.09;5064334;28;20041;-82
2022/11/14 05:01:34;;;;;;;37.55;18.92;;;;;;;3.15;76.47;94897.81;5064646;28;20024;-83
2022/11/14 05:04:00;;;;;;;41.58;18.52;;;;;;;3.14;76.25;94895.44;5064492;28;20136;-83
2022/11/14 05:06:25;;;;;;;40.65;18.92;;;;;;;3.11;75.97;94893.25;5064384;28;20043;-83
2022/11/14 05:08:51;;;;;;;41.17;18.55;;;;;;;3.10;75.90;94897.75;5064710;28;20211;-83
2022/11/14 05:11:18;;;;;;;37.92;17.13;;;;;;;3.10;75.37;94891.69;5064377;28;20045;-83
2022/11/14 05:13:44;;;;;;;35.20;17.20;;;;;;;3.09;75.42;94895.34;5064243;28;20195;-83
2022/11/14 05:16:10;;;;;;;35.75;15.75;;;;;;;3.06;75.61;94903.72;5064263;28;20071;-83
2022/11/14 05:18:36;;;;;;;50.30;22.50;;;;;;;3.07;75.29;94910.59;5064188;28;20024;-83
2022/11/14 05:21:01;;;;;;;63.10;28.92;;;;;;;3.01;76.42;94918.41;5064212;28;20319;-83
2022/11/14 05:23:27;;;;;;;54.03;26.20;;;;;;;3.00;77.28;94916.81;5064208;28;20017;-83
2022/11/14 05:26:01;;;;;;;63.90;29.25;;;;;;;3.00;77.89;94924.72;5064285;28;20020;-83
2022/11/14 05:28:26;;;;;;;57.97;26.20;;;;;;;3.01;78.25;94928.97;5064002;28;20036;-83
2022/11/14 05:30:52;;;;;;;72.78;31.77;;;;;;;3.03;78.78;94923.44;5064166;28;20021;-83
2022/11/14 05:33:17;;;;;;;60.95;28.65;;;;;;;3.09;79.11;94921.69;5063823;28;20047;-84
2022/11/14 05:35:42;;;;;;;71.55;31.10;;;;;;;3.13;79.05;94920.16;5063935;28;20244;-84
2022/11/14 05:38:08;;;;;;;72.47;29.90;;;;;;;3.19;79.13;94924.47;5063985;28;20021;-83
2022/11/14 05:40:33;;;;;;;64.55;28.27;;;;;;;3.16;78.91;94915.22;5063785;28;20099;-83
2022/11/14 05:42:59;;;;;;;59.03;26.77;;;;;;;3.16;79.01;94925.75;5063732;28;20112;-84
2022/11/14 05:45:24;;;;;;;74.97;30.15;;;;;;;3.22;78.99;94924.00;5063722;28;20032;-84
2022/11/14 05:47:52;;;;;;;70.63;28.83;;;;;;;3.28;78.95;94919.59;5063831;28;20048;-84
2022/11/14 05:50:18;;;;;;;152.00;32.08;;;;;;;3.33;78.50;94914.41;5063637;28;20021;-84
2022/11/14 05:52:44;;;;;;;68.18;29.85;;;;;;;3.38;78.50;94922.41;5063531;28;20039;-83
2022/11/14 05:55:09;;;;;;;67.68;27.17;;;;;;;3.38;78.39;94920.56;5063609;28;20067;-85
2022/11/14 05:57:35;;;;;;;55.10;24.42;;;;;;;3.38;78.28;94925.81;5063362;28;20045;-84
2022/11/14 06:00:00;;;;;;;53.47;25.13;;;;;;;3.38;77.80;94931.09;5063477;28;20020;-85
2022/11/14 06:02:26;;;;;;;55.40;24.42;;;;;;;3.37;77.22;94926.06;5063437;28;20337;-85
2022/11/14 06:04:51;;;;;;;56.25;24.60;;;;;;;3.36;77.19;94924.47;5063493;28;20238;-83
2022/11/14 06:07:17;;;;;;;67.13;27.67;;;;;;;3.38;77.43;94936.38;5063332;28;20282;-82
2022/11/14 06:09:42;;;;;;;94.40;28.38;;;;;;;3.41;77.78;94937.72;5063380;28;20092;-82
2022/11/14 06:12:08;;;;;;;133.00;31.10;;;;;;;3.38;78.03;94944.28;5063290;28;20044;-82
2022/11/14 06:14:33;;;;;;;82.60;27.25;;;;;;;3.41;78.09;94948.25;5063349;28;20215;-82
2022/11/14 06:16:58;;;;;;;148.88;31.02;;;;;;;3.42;78.32;94953.28;5062763;28;20028;-82
2022/11/14 06:19:24;;;;;;;77.13;30.23;;;;;;;3.40;78.30;94947.47;5063221;28;20071;-83
2022/11/14 06:21:49;;;;;;;81.22;27.40;;;;;;;3.40;78.44;94947.47;5063163;28;20024;-83
2022/11/14 06:24:15;;;;;;;105.20;29.67;;;;;;;3.40;78.35;94947.47;5062964;28;20025;-83
2022/11/14 06:26:40;;;;;;;130.82;29.35;;;;;;;3.40;78.60;94944.84;5062424;28;20326;-83
2022/11/14 06:29:06;;;;;;;110.32;29.42;;;;;;;3.38;78.65;94944.28;5062674;28;20033;-83
2022/11/14 06:31:32;;;;;;;136.80;29.27;;;;;;;3.38;78.92;94946.91;5062499;28;20027;-82
2022/11/14 06:33:57;;;;;;;110.63;29.95;;;;;;;3.43;79.07;94943.53;5062756;28;20028;-83
2022/11/14 06:36:23;;;;;;;107.78;28.73;;;;;;;3.46;79.12;94951.00;5062922;28;20024;-83
2022/11/14 06:38:48;;;;;;;79.53;28.85;;;;;;;3.47;78.93;94941.22;5062854;28;20048;-83
2022/11/14 06:41:19;;;;;;;136.35;31.35;;;;;;;3.52;78.80;94938.66;5062496;28;20055;-80
2022/11/14 06:43:46;;;;;;;119.68;29.63;;;;;;;3.51;78.87;94942.34;5062792;28;20037;-81
2022/11/14 06:46:14;;;;;;;78.45;28.48;;;;;;;3.51;79.04;94947.63;5062796;28;20218;-81
2022/11/14 06:48:40;;;;;;;112.18;29.30;;;;;;;3.53;78.95;94935.78;5062850;28;20044;-80
2022/11/14 06:51:06;;;;;;;154.20;27.58;;;;;;;3.49;78.68;94939.94;5062542;28;20060;-80
2022/11/14 06:53:34;;;;;;;130.98;29.92;;;;;;;3.46;78.67;94935.16;5062735;28;20021;-80
2022/11/14 06:56:02;;;;;;;128.50;28.58;;;;;;;3.46;79.07;94929.91;5062699;28;20253;-81
2022/11/14 06:58:35;;;;;;;143.13;28.27;;;;;;;3.44;78.76;94936.44;5062369;28;20048;-81
2022/11/14 07:01:06;;;;;;;103.78;29.52;;;;;;;3.39;79.30;94923.97;5062504;28;20245;-80
2022/11/14 07:03:32;;;;;;;129.18;30.38;;;;;;;3.38;79.94;94932.94;5062648;28;20021;-81
2022/11/14 07:05:59;;;;;;;97.78;28.67;;;;;;;3.42;80.32;94929.56;5062570;28;20027;-81
2022/11/14 07:08:25;;;;;;;115.32;29.17;;;;;;;3.48;80.47;94927.81;5062557;28;20025;-82
2022/11/14 07:10:50;;;;;;;132.77;29.10;;;;;;;3.52;79.78;94928.09;5062538;28;20215;-82
2022/11/14 07:13:15;;;;;;;141.27;31.25;;;;;;;3.57;80.15;94931.63;5062242;28;20029;-81
2022/11/14 07:15:51;;;;;;;110.55;30.20;;;;;;;3.68;80.69;94927.28;5062476;28;20020;-81
2022/11/14 07:18:17;;;;;;;125.10;29.67;;;;;;;3.79;80.01;94922.97;5062366;28;20317;-82
2022/11/14 07:20:42;;;;;;;80.15;29.98;;;;;;;3.85;79.50;94931.72;5062374;28;20047;-84
2022/11/14 07:23:08;;;;;;;114.00;30.13;;;;;;;3.85;78.82;94932.53;5060869;28;20020;-84
2022/11/14 07:25:33;;;;;;;72.82;27.58;;;;;;;3.81;79.02;94932.22;5062201;28;20017;-84
2022/11/14 07:27:59;;;;;;;70.63;29.38;;;;;;;3.90;79.67;94926.53;5062267;28;20092;-83
2022/11/14 07:30:24;;;;;;;107.60;31.23;;;;;;;4.00;79.73;94926.66;5062266;28;20357;-81
2022/11/14 07:32:57;;;;;;;94.82;32.45;;;;;;;4.11;79.39;94936.28;5062200;28;20025;-82
2022/11/14 07:35:23;;;;;;;133.18;31.50;;;;;;;4.25;78.77;94931.41;5062333;28;20021;-83
2022/11/14 07:37:49;;;;;;;84.57;30.83;;;;;;;4.32;78.49;94925.97;5063664;28;20024;-83
2022/11/14 07:40:15;;;;;;;101.28;31.40;;;;;;;4.18;77.94;94928.19;5065747;28;20187;-83
2022/11/14 07:42:40;;;;;;;97.03;32.70;;;;;;;4.18;78.24;94921.06;5066107;28;20275;-79
2022/11/14 07:45:07;;;;;;;75.40;29.52;;;;;;;4.31;78.30;94929.63;5065828;28;20048;-84
2022/11/14 07:47:33;;;;;;;97.68;31.52;;;;;;;4.43;78.04;94917.09;5066058;28;20029;-77
2022/11/14 07:49:58;;;;;;;138.60;31.85;;;;;;;4.46;77.66;94921.06;5065926;28;20092;-80
2022/11/14 07:52:23;;;;;;;88.40;29.50;;;;;;;4.42;77.55;94926.06;5065707;28;20067;-79
2022/11/14 07:54:49;;;;;;;104.63;33.20;;;;;;;4.41;77.90;94927.91;5065776;28;20025;-81
2022/11/14 07:57:14;;;;;;;95.75;32.92;;;;;;;4.37;78.07;94912.81;5065561;28;20032;-81
2022/11/14 07:59:40;;;;;;;87.70;31.35;;;;;;;4.42;78.64;94910.25;5065883;28;20075;-79
2022/11/14 08:02:07;;;;;;;77.88;30.52;;;;;;;4.49;78.95;94923.25;5065635;28;20432;-79
2022/11/14 08:04:33;;;;;;;102.22;31.83;;;;;;;4.60;78.48;94922.31;5065528;28;20024;-79
2022/11/14 08:06:58;;;;;;;77.43;30.95;;;;;;;4.68;77.88;94916.56;5065638;28;20094;-80
2022/11/14 08:09:24;;;;;;;135.50;31.27;;;;;;;4.68;77.87;94921.03;5065835;28;20040;-80
2022/11/14 08:11:50;;;;;;;74.65;32.92;;;;;;;4.75;78.39;94913.72;5065669;28;20353;-81
2022/11/14 08:14:16;;;;;;;77.28;32.85;;;;;;;4.89;78.71;94917.56;5065328;28;20274;-83
2022/11/14 08:16:41;;;;;;;76.13;31.90;;;;;;;5.06;77.89;94922.69;5065345;28;20029;-83
2022/11/14 08:19:07;;;;;;;89.88;33.97;;;;;;;5.23;76.75;94914.63;5065348;28;20059;-82
2022/11/14 08:21:32;;;;;;;73.60;33.28;;;;;;;5.35;76.76;94907.34;5065376;28;20319;-82
2022/11/14 08:23:58;;;;;;;68.78;31.45;;;;;;;5.51;75.93;94910.06;5065490;28;20044;-82
2022/11/14 08:26:23;;;;;;;68.35;31.17;;;;;;;5.62;75.63;94903.81;5065313;28;20021;-83
2022/11/14 08:28:53;;;;;;;76.93;33.67;;;;;;;5.78;74.75;94908.13;5065360;28;20250;-81
2022/11/14 08:31:19;;;;;;;83.10;33.03;;;;;;;5.87;74.36;94902.34;5065047;28;20031;-85
2022/11/14 08:33:44;;;;;;;77.43;33.70;;;;;;;5.93;73.89;94901.31;5065098;28;20025;-82
2022/11/14 08:36:10;;;;;;;88.85;35.78;;;;;;;6.04;73.41;94897.69;5065097;28;20055;-86
2022/11/14 08:38:36;;;;;;;70.65;32.55;;;;;;;6.13;73.44;94906.72;5064872;28;20009;-82
2022/11/14 08:41:02;;;;;;;80.38;33.58;;;;;;;6.21;73.31;94903.56;5063828;28;20017;-74
2022/11/14 08:43:29;;;;;;;76.60;31.73;;;;;;;6.36;72.76;94909.97;5064893;28;20027;-77
2022/11/14 08:46:03;;;;;;;72.10;35.22;;;;;;;6.32;71.92;94893.81;5064959;28;20218;-78
2022/11/14 08:48:30;;;;;;;78.28;35.15;;;;;;;6.30;71.93;94900.44;5064314;28;20021;-80
2022/11/14 08:50:56;;;;;;;76.03;34.28;;;;;;;6.29;72.66;94898.81;5064845;28;20023;-78
2022/11/14 08:53:21;;;;;;;79.40;35.83;;;;;;;6.30;72.84;94893.28;5064692;28;20327;-79
2022/11/14 08:55:48;;;;;;;88.95;37.55;;;;;;;6.36;72.39;94883.50;5064689;28;20044;-78
2022/11/14 08:58:14;;;;;;;101.03;41.53;;;;;;;6.42;72.30;94882.44;5064618;28;20266;-78
2022/11/14 09:00:39;;;;;;;80.82;37.92;;;;;;;6.45;72.79;94881.13;5064730;28;20218;-78
2022/11/14 09:03:09;;;;;;;81.78;39.42;;;;;;;6.52;72.84;94882.47;5064394;28;20036;-77
2022/11/14 09:05:35;;;;;;;79.93;37.85;;;;;;;6.61;72.16;94870.31;5064343;28;20100;-77
2022/11/14 09:08:02;;;;;;;89.30;37.33;;;;;;;6.76;71.73;94866.09;5064460;28;20021;-80
2022/11/14 09:10:28;;;;;;;101.20;41.50;;;;;;;6.90;71.35;94872.47;5064596;28;20075;-79
2022/11/14 09:12:55;;;;;;;89.88;38.20;;;;;;;7.00;71.72;94866.34;5064354;28;20021;-77
2022/11/14 09:15:21;;;;;;;90.53;40.47;;;;;;;7.19;71.64;94867.41;5064565;28;20017;-77
2022/11/14 09:17:46;;;;;;;88.35;38.42;;;;;;;7.42;71.34;94862.59;5064428;28;20020;-78
2022/11/14 09:20:12;;;;;;;86.53;37.30;;;;;;;7.65;70.59;94847.94;5062894;28;20017;-79
2022/11/14 09:22:37;;;;;;;84.95;37.00;;;;;;;7.72;69.12;94851.13;5064293;28;20012;-79
2022/11/14 09:25:03;;;;;;;72.10;36.63;;;;;;;7.72;68.50;94835.19;5064094;28;20027;-79
2022/11/14 09:27:28;;;;;;;80.40;35.95;;;;;;;7.63;68.55;94844.78;5062925;28;20021;-78
2022/11/14 09:29:53;;;;;;;78.10;37.55;;;;;;;7.54;69.12;94843.75;5064229;28;20067;-78
2022/11/14 09:32:19;;;;;;;78.18;39.03;;;;;;;7.32;69.73;94852.00;5064041;28;20032;-80
2022/11/14 09:34:44;;;;;;;80.70;38.92;;;;;;;7.16;70.17;94843.28;5064068;28;20028;-78
2022/11/14 09:37:10;;;;;;;85.53;37.60;;;;;;;7.00;71.00;94837.19;5064056;28;20029;-78
2022/11/14 09:39:39;;;;;;;77.13;38.30;;;;;;;6.88;71.54;94847.25;5063811;28;20040;-79
2022/11/14 09:42:49;;;;;;;93.72;36.67;;;;;;;6.80;71.50;94835.38;5064030;28;20017;-79
2022/11/14 09:45:16;;;;;;;76.25;36.78;;;;;;;6.72;71.45;94843.84;5047903;28;20045;-78
2022/11/14 09:48:05;;;;;;;86.38;36.67;;;;;;;6.66;72.25;94843.03;5063755;28;20027;-78
2022/11/14 09:50:39;;;;;;;82.97;35.50;;;;;;;6.67;72.27;94833.22;5063632;28;20212;-78
2022/11/14 09:53:18;;;;;;;69.70;35.47;;;;;;;6.67;72.28;94835.88;5063455;28;20032;-78
2022/11/14 09:55:44;;;;;;;73.18;36.97;;;;;;;6.78;72.26;94832.97;5063580;28;20029;-78
2022/11/14 09:58:19;;;;;;;76.07;35.90;;;;;;;6.83;71.42;94829.50;5063166;28;20037;-79
2022/11/14 10:01:02;;;;;;;63.65;33.70;;;;;;;6.93;71.39;94826.06;5062582;28;20445;-78
2022/11/14 10:03:41;;;;;;;;;;;;;;;6.94;70.87;94819.69;5063780;28;20055;-78
2022/11/14 10:06:27;;;;;;;79.45;35.83;;;;;;;6.99;71.01;94812.53;5063412;28;19963;-78
2022/11/14 10:09:20;;;;;;;84.75;36.63;;;;;;;7.01;71.22;94805.13;5063566;28;20088;-77
2022/11/14 10:12:09;;;;;;;69.53;35.15;;;;;;;7.12;70.66;94800.59;5062182;28;20049;-77
2022/11/14 10:14:58;;;;;;;76.65;34.83;;;;;;;7.27;70.45;94785.75;5063244;28;20017;-77
2022/11/14 10:17:45;;;;;;;70.47;34.58;;;;;;;7.48;70.53;94794.44;5063326;28;20031;-79
2022/11/14 10:20:22;;;;;;;72.30;34.60;;;;;;;7.74;69.44;94790.63;5063057;28;20315;-79
2022/11/14 10:22:56;;;;;;;69.03;34.55;;;;;;;7.92;68.16;94785.78;5063084;28;20088;-78
2022/11/14 10:25:40;;;;;;;69.53;35.70;;;;;;;8.04;67.63;94786.25;5063319;28;20052;-84
2022/11/14 10:28:32;;;;;;;83.25;37.28;;;;;;;8.18;68.32;94784.56;5063828;28;20100;-84
2022/11/14 10:31:08;;;;;;;65.97;32.63;;;;;;;8.35;66.71;94783.41;5063708;28;20024;-88
2022/11/14 10:33:58;;;;;;;72.70;33.50;;;;;;;8.37;66.10;94776.72;5063262;28;20034;-87
2022/11/14 10:36:56;;;;;;;70.72;33.38;;;;;;;8.43;66.11;94774.88;5062376;28;20330;-88
2022/11/14 10:39:26;;;;;;;84.55;31.38;;;;;;;8.51;65.31;94760.19;5064027;28;20025;-86
2022/11/14 10:41:58;;;;;;;67.10;31.58;;;;;;;8.57;65.30;94764.41;5063397;28;20025;-85
2022/11/14 10:44:30;;;;;;;62.63;29.67;;;;;;;8.58;65.15;94761.47;5063092;28;20025;-86
2022/11/14 10:47:02;;;;;;;61.80;30.33;;;;;;;8.64;66.06;94760.34;5062933;28;20232;-83
2022/11/14 10:49:31;;;;;;;64.47;32.65;;;;;;;8.84;65.44;94761.25;5063131;28;20392;-87
2022/11/14 10:52:01;;;;;;;59.47;32.65;;;;;;;9.00;65.06;94745.97;5062683;28;20100;-87
2022/11/14 10:54:37;;;;;;;62.30;31.90;;;;;;;9.02;64.26;94741.16;5064277;28;20341;-88
2022/11/14 10:57:14;;;;;;;67.53;33.70;;;;;;;9.22;64.13;94737.50;5064488;28;20029;-88
2022/11/14 10:59:41;;;;;;;62.25;31.15;;;;;;;9.35;63.57;94739.47;5066564;28;20040;-87
2022/11/14 11:02:07;;;;;;;59.35;32.45;;;;;;;9.49;63.51;94736.91;5064812;28;20031;-86
2022/11/14 11:04:35;;;;;;;68.43;33.70;;;;;;;9.68;62.66;94733.50;5064754;28;20029;-87
2022/11/14 11:07:07;;;;;;;61.95;32.75;;;;;;;9.80;61.79;94733.88;5064926;28;20025;-87
2022/11/14 11:12:44;;;;;;;65.05;34.25;;;;;;;10.09;61.14;94728.41;5065296;28;20036;-87
2022/11/14 11:15:17;;;;;;;58.95;31.85;;;;;;;10.23;60.60;94726.59;5066716;28;20325;-86
2022/11/14 11:18:00;;;;;;;66.78;32.15;;;;;;;10.34;60.22;94723.81;5067644;28;20017;-87
2022/11/14 11:20:38;;;;;;;58.88;32.17;;;;;;;10.47;60.01;94717.75;5068792;28;20102;-86
2022/11/14 11:23:25;;;;;;;61.70;32.05;;;;;;;10.68;59.02;94717.44;5067571;28;20025;-87
2022/11/14 11:26:04;;;;;;;60.95;32.33;;;;;;;10.78;58.85;94714.59;5067522;28;20279;-87
2022/11/14 11:28:32;;;;;;;63.22;31.63;;;;;;;10.81;60.36;94711.34;5067205;28;20095;-84
2022/11/14 11:30:59;;;;;;;64.43;33.53;;;;;;;10.86;58.33;94713.91;5066040;28;20017;-73